Terminal Aerodrome Forecast
Issued by NWS Atlanta, GA

Home | Current Version | Previous Version | Text Only | Print | Product List | Glossary On
Versions: 1 2 3 4 5 6 7 8 9 10 11 12 13 14 15 16 17 18 19 20 21 22 23
000
FTUS42 KFFC 011251 AAA
TAFCSG
TAF AMD
KCSG 011251Z 0113/0212 03003KT 6SM BR SCT004
     FM011400 05004KT P6SM FEW040 SCT250
     FM011600 06005KT P6SM BKN040
      TEMPO 0119/0123 5SM -TSRA BKN040CB
     FM020200 00000KT P6SM SCT250=

USA.gov is the U.S. government's official web portal to all federal, state and local government web resources and services.